sensor_id;sensor_type;location;lat;lon;timestamp;pressure;altitude;pressure_sealevel;temperature;humidity
70589;BME280;58152;49.202;18.744;2022-08-01T00:01:56;97261.59;;;15.39;81.74
70589;BME280;58152;49.202;18.744;2022-08-01T00:04:22;97257.44;;;15.35;81.86
70589;BME280;58152;49.202;18.744;2022-08-01T00:06:47;97260.09;;;15.35;82.02
70589;BME280;58152;49.202;18.744;2022-08-01T00:09:13;97256.72;;;15.33;81.91
70589;BME280;58152;49.202;18.744;2022-08-01T00:11:38;97248.25;;;15.28;82.13
70589;BME280;58152;49.202;18.744;2022-08-01T00:14:04;97266.34;;;15.34;82.18
70589;BME280;58152;49.202;18.744;2022-08-01T00:16:30;97255.75;;;15.34;81.85
70589;BME280;58152;49.202;18.744;2022-08-01T00:18:55;97256.81;;;15.31;81.76
70589;BME280;58152;49.202;18.744;2022-08-01T00:21:21;97258.41;;;15.34;81.96
70589;BME280;58152;49.202;18.744;2022-08-01T00:23:47;97246.25;;;15.31;82.21
70589;BME280;58152;49.202;18.744;2022-08-01T00:26:13;97246.03;;;15.34;81.65
70589;BME280;58152;49.202;18.744;2022-08-01T00:28:39;97248.13;;;15.29;81.83
70589;BME280;58152;49.202;18.744;2022-08-01T00:31:04;97234.28;;;15.25;82.09
70589;BME280;58152;49.202;18.744;2022-08-01T00:33:30;97237.56;;;15.29;81.97
70589;BME280;58152;49.202;18.744;2022-08-01T00:35:55;97251.72;;;15.28;81.87
70589;BME280;58152;49.202;18.744;2022-08-01T00:38:21;97249.28;;;15.25;81.76
70589;BME280;58152;49.202;18.744;2022-08-01T00:40:47;97250.13;;;15.25;81.69
70589;BME280;58152;49.202;18.744;2022-08-01T00:43:13;97251.63;;;15.30;82.00
70589;BME280;58152;49.202;18.744;2022-08-01T00:45:39;97254.50;;;15.27;81.77
70589;BME280;58152;49.202;18.744;2022-08-01T00:48:04;97255.41;;;15.25;81.84
70589;BME280;58152;49.202;18.744;2022-08-01T00:50:30;97251.84;;;15.27;82.25
70589;BME280;58152;49.202;18.744;2022-08-01T00:52:56;97244.09;;;15.23;82.30
70589;BME280;58152;49.202;18.744;2022-08-01T00:55:23;97244.94;;;15.24;81.95
70589;BME280;58152;49.202;18.744;2022-08-01T00:57:49;97245.06;;;15.22;82.07
70589;BME280;58152;49.202;18.744;2022-08-01T01:00:15;97246.03;;;15.21;82.25
70589;BME280;58152;49.202;18.744;2022-08-01T01:02:40;97253.84;;;15.23;81.81
70589;BME280;58152;49.202;18.744;2022-08-01T01:05:06;97246.03;;;15.21;82.32
70589;BME280;58152;49.202;18.744;2022-08-01T01:07:44;97254.69;;;15.23;82.46
70589;BME280;58152;49.202;18.744;2022-08-01T01:10:18;97253.84;;;15.23;82.41
70589;BME280;58152;49.202;18.744;2022-08-01T01:13:08;97254.78;;;15.22;82.45
70589;BME280;58152;49.202;18.744;2022-08-01T01:15:41;97257.44;;;15.22;82.33
70589;BME280;58152;49.202;18.744;2022-08-01T01:18:16;97250.44;;;15.21;82.36
70589;BME280;58152;49.202;18.744;2022-08-01T01:20:49;97254.78;;;15.22;82.32
70589;BME280;58152;49.202;18.744;2022-08-01T01:26:26;97250.44;;;15.21;82.81
70589;BME280;58152;49.202;18.744;2022-08-01T01:34:43;97246.31;;;15.17;82.49
70589;BME280;58152;49.202;18.744;2022-08-01T01:37:12;97254.13;;;15.18;82.27
70589;BME280;58152;49.202;18.744;2022-08-01T01:39:41;97244.81;;;15.13;82.23
70589;BME280;58152;49.202;18.744;2022-08-01T01:42:08;97254.13;;;15.18;82.66
70589;BME280;58152;49.202;18.744;2022-08-01T01:44:34;97250.84;;;15.15;82.65
70589;BME280;58152;49.202;18.744;2022-08-01T01:47:02;97241.13;;;15.15;82.43
70589;BME280;58152;49.202;18.744;2022-08-01T01:49:28;97238.78;;;15.11;82.57
70589;BME280;58152;49.202;18.744;2022-08-01T01:51:56;97249.81;;;15.17;82.57
70589;BME280;58152;49.202;18.744;2022-08-01T01:54:25;97233.31;;;15.14;82.82
70589;BME280;58152;49.202;18.744;2022-08-01T01:56:55;97231.59;;;15.13;82.47
70589;BME280;58152;49.202;18.744;2022-08-01T01:59:25;97240.16;;;15.16;82.67
70589;BME280;58152;49.202;18.744;2022-08-01T02:01:53;97238.47;;;15.15;82.77
70589;BME280;58152;49.202;18.744;2022-08-01T02:04:21;97234.97;;;15.15;82.65
70589;BME280;58152;49.202;18.744;2022-08-01T02:06:50;97232.34;;;15.15;82.28
70589;BME280;58152;49.202;18.744;2022-08-01T02:09:17;97238.59;;;15.14;82.46
70589;BME280;58152;49.202;18.744;2022-08-01T02:11:46;97235.09;;;15.13;82.54
70589;BME280;58152;49.202;18.744;2022-08-01T02:14:13;97248.09;;;15.16;82.57
70589;BME280;58152;49.202;18.744;2022-08-01T02:16:40;97245.84;;;15.10;82.44
70589;BME280;58152;49.202;18.744;2022-08-01T02:19:07;97251.91;;;15.12;82.65
70589;BME280;58152;49.202;18.744;2022-08-01T02:21:39;97241.41;;;15.11;82.58
70589;BME280;58152;49.202;18.744;2022-08-01T02:24:13;97240.38;;;15.13;82.79
70589;BME280;58152;49.202;18.744;2022-08-01T02:26:44;97244.06;;;15.11;82.69
70589;BME280;58152;49.202;18.744;2022-08-01T02:29:21;97235.47;;;15.07;82.24
70589;BME280;58152;49.202;18.744;2022-08-01T02:31:48;97257.38;;;15.09;82.24
70589;BME280;58152;49.202;18.744;2022-08-01T02:34:17;97251.75;;;15.01;82.44
70589;BME280;58152;49.202;18.744;2022-08-01T02:36:44;97257.13;;;14.99;82.31
70589;BME280;58152;49.202;18.744;2022-08-01T02:39:13;97253.53;;;15.00;82.28
70589;BME280;58152;49.202;18.744;2022-08-01T02:41:42;97244.75;;;15.00;82.53
70589;BME280;58152;49.202;18.744;2022-08-01T02:44:10;97245.16;;;14.94;82.28
70589;BME280;58152;49.202;18.744;2022-08-01T02:46:47;97246.94;;;14.93;82.82
70589;BME280;58152;49.202;18.744;2022-08-01T02:49:14;97255.53;;;14.97;82.67
70589;BME280;58152;49.202;18.744;2022-08-01T02:51:41;97247.88;;;14.92;82.76
70589;BME280;58152;49.202;18.744;2022-08-01T02:54:09;97251.38;;;14.93;82.86
70589;BME280;58152;49.202;18.744;2022-08-01T02:56:36;97246.19;;;14.91;82.75
70589;BME280;58152;49.202;18.744;2022-08-01T02:59:09;97266.31;;;14.94;82.56
70589;BME280;58152;49.202;18.744;2022-08-01T03:01:37;97254.78;;;14.95;82.99
70589;BME280;58152;49.202;18.744;2022-08-01T03:04:06;97268.84;;;14.95;82.52
70589;BME280;58152;49.202;18.744;2022-08-01T03:06:33;97254.78;;;14.95;82.53
70589;BME280;58152;49.202;18.744;2022-08-01T03:09:02;97246.00;;;14.94;82.74
70589;BME280;58152;49.202;18.744;2022-08-01T03:11:30;97245.25;;;14.92;82.57
70589;BME280;58152;49.202;18.744;2022-08-01T03:13:58;97252.22;;;14.93;82.83
70589;BME280;58152;49.202;18.744;2022-08-01T03:16:26;97247.03;;;14.92;82.39
70589;BME280;58152;49.202;18.744;2022-08-01T03:18:54;97249.88;;;14.89;82.22
70589;BME280;58152;49.202;18.744;2022-08-01T03:21:23;97250.75;;;14.89;82.37
70589;BME280;58152;49.202;18.744;2022-08-01T03:23:50;97254.41;;;14.87;82.28
70589;BME280;58152;49.202;18.744;2022-08-01T03:26:18;97262.25;;;14.88;82.46
70589;BME280;58152;49.202;18.744;2022-08-01T03:28:46;97260.72;;;14.84;82.18
70589;BME280;58152;49.202;18.744;2022-08-01T03:31:14;97253.69;;;14.85;82.45
70589;BME280;58152;49.202;18.744;2022-08-01T03:33:40;97255.75;;;14.80;82.04
70589;BME280;58152;49.202;18.744;2022-08-01T03:36:09;97260.09;;;14.81;81.82
70589;BME280;58152;49.202;18.744;2022-08-01T03:38:39;97253.41;;;14.75;81.92
70589;BME280;58152;49.202;18.744;2022-08-01T03:41:12;97264.72;;;14.77;82.00
70589;BME280;58152;49.202;18.744;2022-08-01T03:43:46;97258.50;;;14.78;81.55
70589;BME280;58152;49.202;18.744;2022-08-01T03:46:19;97262.81;;;14.79;82.31
70589;BME280;58152;49.202;18.744;2022-08-01T03:48:48;97255.97;;;14.77;81.85
70589;BME280;58152;49.202;18.744;2022-08-01T03:51:15;97248.03;;;14.77;81.93
70589;BME280;58152;49.202;18.744;2022-08-01T03:53:44;97255.00;;;14.78;81.76
70589;BME280;58152;49.202;18.744;2022-08-01T03:56:12;97262.94;;;14.78;81.80
70589;BME280;58152;49.202;18.744;2022-08-01T03:58:42;97257.53;;;14.79;81.70
70589;BME280;58152;49.202;18.744;2022-08-01T04:01:09;97259.25;;;14.80;81.92
70589;BME280;58152;49.202;18.744;2022-08-01T04:03:34;97264.44;;;14.82;82.05
70589;BME280;58152;49.202;18.744;2022-08-01T04:06:06;97266.31;;;14.80;82.23
70589;BME280;58152;49.202;18.744;2022-08-01T04:08:39;97262.75;;;14.81;82.12
70589;BME280;58152;49.202;18.744;2022-08-01T04:11:05;97253.09;;;14.80;82.00
70589;BME280;58152;49.202;18.744;2022-08-01T04:13:33;97250.56;;;14.78;82.11
70589;BME280;58152;49.202;18.744;2022-08-01T04:15:58;97256.63;;;14.80;81.77
70589;BME280;58152;49.202;18.744;2022-08-01T04:18:24;97254.72;;;14.82;82.09
70589;BME280;58152;49.202;18.744;2022-08-01T04:20:50;97254.72;;;14.82;81.90
70589;BME280;58152;49.202;18.744;2022-08-01T04:23:17;97265.19;;;14.84;82.02
70589;BME280;58152;49.202;18.744;2022-08-01T04:25:44;97261.91;;;14.80;82.37
70589;BME280;58152;49.202;18.744;2022-08-01T04:28:13;97264.44;;;14.82;81.96
70589;BME280;58152;49.202;18.744;2022-08-01T04:30:44;97265.09;;;14.85;82.05
70589;BME280;58152;49.202;18.744;2022-08-01T04:33:13;97258.97;;;14.85;82.30
70589;BME280;58152;49.202;18.744;2022-08-01T04:35:43;97265.19;;;14.84;82.35
70589;BME280;58152;49.202;18.744;2022-08-01T04:38:12;97264.31;;;14.83;82.30
70589;BME280;58152;49.202;18.744;2022-08-01T04:40:40;97265.19;;;14.84;81.82
70589;BME280;58152;49.202;18.744;2022-08-01T04:43:06;97262.81;;;14.79;81.96
70589;BME280;58152;49.202;18.744;2022-08-01T04:45:33;97267.91;;;14.82;81.65
70589;BME280;58152;49.202;18.744;2022-08-01T04:47:59;97267.06;;;14.82;81.65
70589;BME280;58152;49.202;18.744;2022-08-01T04:50:26;97265.56;;;14.78;81.62
70589;BME280;58152;49.202;18.744;2022-08-01T04:52:51;97270.66;;;14.81;81.67
70589;BME280;58152;49.202;18.744;2022-08-01T04:55:17;97267.25;;;14.79;81.52
70589;BME280;58152;49.202;18.744;2022-08-01T04:57:44;97268.22;;;14.78;81.92
70589;BME280;58152;49.202;18.744;2022-08-01T05:00:10;97272.47;;;14.80;82.01
70589;BME280;58152;49.202;18.744;2022-08-01T05:02:36;97271.81;;;14.77;82.12
70589;BME280;58152;49.202;18.744;2022-08-01T05:05:02;97275.28;;;14.77;82.04
70589;BME280;58152;49.202;18.744;2022-08-01T05:07:28;97270.66;;;14.81;81.98
70589;BME280;58152;49.202;18.744;2022-08-01T05:09:53;97270.75;;;14.79;82.20
70589;BME280;58152;49.202;18.744;2022-08-01T05:12:19;97271.69;;;14.78;82.16
70589;BME280;58152;49.202;18.744;2022-08-01T05:14:45;97273.31;;;14.81;82.28
70589;BME280;58152;49.202;18.744;2022-08-01T05:17:11;97276.78;;;14.81;81.80
70589;BME280;58152;49.202;18.744;2022-08-01T05:19:38;97274.22;;;14.80;82.08
70589;BME280;58152;49.202;18.744;2022-08-01T05:22:07;97282.75;;;14.85;82.10
70589;BME280;58152;49.202;18.744;2022-08-01T05:24:38;97281.13;;;14.82;82.02
70589;BME280;58152;49.202;18.744;2022-08-01T05:27:05;97267.06;;;14.82;82.55
70589;BME280;58152;49.202;18.744;2022-08-01T05:29:31;97271.28;;;14.84;82.42
70589;BME280;58152;49.202;18.744;2022-08-01T05:31:57;97276.41;;;14.87;82.11
70589;BME280;58152;49.202;18.744;2022-08-01T05:34:25;97276.28;;;14.89;82.06
70589;BME280;58152;49.202;18.744;2022-08-01T05:36:50;97279.69;;;14.91;82.71
70589;BME280;58152;49.202;18.744;2022-08-01T05:39:16;97281.28;;;14.93;82.27
70589;BME280;58152;49.202;18.744;2022-08-01T05:41:41;97269.13;;;14.91;82.75
70589;BME280;58152;49.202;18.744;2022-08-01T05:44:08;97282.78;;;14.97;82.44
70589;BME280;58152;49.202;18.744;2022-08-01T05:46:34;97270.63;;;14.95;82.22
70589;BME280;58152;49.202;18.744;2022-08-01T05:49:01;97285.34;;;14.99;82.32
70589;BME280;58152;49.202;18.744;2022-08-01T05:51:27;97279.09;;;15.00;82.24
70589;BME280;58152;49.202;18.744;2022-08-01T05:53:53;97285.22;;;15.00;82.09
70589;BME280;58152;49.202;18.744;2022-08-01T05:56:20;97280.97;;;14.98;82.39
70589;BME280;58152;49.202;18.744;2022-08-01T05:58:46;97276.56;;;14.98;82.27
70589;BME280;58152;49.202;18.744;2022-08-01T06:01:11;97285.13;;;15.02;81.92
70589;BME280;58152;49.202;18.744;2022-08-01T06:03:37;97282.59;;;15.00;82.14
70589;BME280;58152;49.202;18.744;2022-08-01T06:06:03;97283.31;;;15.03;81.88
70589;BME280;58152;49.202;18.744;2022-08-01T06:08:29;97281.63;;;15.02;82.06
70589;BME280;58152;49.202;18.744;2022-08-01T06:10:55;97285.78;;;15.06;81.54
70589;BME280;58152;49.202;18.744;2022-08-01T06:13:20;97296.34;;;15.06;82.01
70589;BME280;58152;49.202;18.744;2022-08-01T06:15:48;97296.47;;;15.04;81.97
70589;BME280;58152;49.202;18.744;2022-08-01T06:18:15;97297.41;;;15.03;82.03
70589;BME280;58152;49.202;18.744;2022-08-01T06:20:40;97310.22;;;15.09;82.23
70589;BME280;58152;49.202;18.744;2022-08-01T06:23:08;97298.88;;;15.07;82.07
70589;BME280;58152;49.202;18.744;2022-08-01T06:25:33;97306.72;;;15.09;81.88
70589;BME280;58152;49.202;18.744;2022-08-01T06:27:59;97301.16;;;15.13;82.04
70589;BME280;58152;49.202;18.744;2022-08-01T06:30:25;97298.50;;;15.13;82.33
70589;BME280;58152;49.202;18.744;2022-08-01T06:32:51;97298.28;;;15.16;81.94
70589;BME280;58152;49.202;18.744;2022-08-01T06:35:17;97298.00;;;15.21;82.26
70589;BME280;58152;49.202;18.744;2022-08-01T06:37:42;97296.13;;;15.23;81.95
70589;BME280;58152;49.202;18.744;2022-08-01T06:40:11;97295.94;;;15.26;81.97
70589;BME280;58152;49.202;18.744;2022-08-01T06:42:37;97294.97;;;15.27;81.94
70589;BME280;58152;49.202;18.744;2022-08-01T06:45:09;97299.97;;;15.32;81.59
70589;BME280;58152;49.202;18.744;2022-08-01T06:47:35;97305.03;;;15.35;81.87
70589;BME280;58152;49.202;18.744;2022-08-01T06:50:01;97295.34;;;15.35;81.78
70589;BME280;58152;49.202;18.744;2022-08-01T06:52:26;97308.31;;;15.38;81.59
70589;BME280;58152;49.202;18.744;2022-08-01T06:54:52;97299.56;;;15.38;81.68
70589;BME280;58152;49.202;18.744;2022-08-01T06:57:18;97302.53;;;15.46;81.27
70589;BME280;58152;49.202;18.744;2022-08-01T06:59:43;97297.25;;;15.46;81.07
70589;BME280;58152;49.202;18.744;2022-08-01T07:02:09;97297.91;;;15.49;80.94
70589;BME280;58152;49.202;18.744;2022-08-01T07:04:34;97296.00;;;15.51;81.17
70589;BME280;58152;49.202;18.744;2022-08-01T07:07:00;97293.91;;;15.57;81.04
70589;BME280;58152;49.202;18.744;2022-08-01T07:09:26;97288.53;;;15.58;80.72
70589;BME280;58152;49.202;18.744;2022-08-01T07:11:52;97282.06;;;15.62;80.93
70589;BME280;58152;49.202;18.744;2022-08-01T07:14:21;97280.84;;;15.68;80.58
70589;BME280;58152;49.202;18.744;2022-08-01T07:16:47;97286.16;;;15.68;80.58
70589;BME280;58152;49.202;18.744;2022-08-01T07:19:13;97284.88;;;15.73;80.69
70589;BME280;58152;49.202;18.744;2022-08-01T07:21:41;97290.06;;;15.75;80.08
70589;BME280;58152;49.202;18.744;2022-08-01T07:24:08;97290.59;;;15.80;79.95
70589;BME280;58152;49.202;18.744;2022-08-01T07:26:34;97288.81;;;15.81;79.91
70589;BME280;58152;49.202;18.744;2022-08-01T07:29:02;97289.34;;;15.86;80.11
70589;BME280;58152;49.202;18.744;2022-08-01T07:31:28;97299.50;;;15.92;79.56
70589;BME280;58152;49.202;18.744;2022-08-01T07:33:54;97290.63;;;15.93;79.44
70589;BME280;58152;49.202;18.744;2022-08-01T07:36:19;97281.72;;;15.94;79.69
70589;BME280;58152;49.202;18.744;2022-08-01T07:38:45;97286.63;;;16.00;79.58
70589;BME280;58152;49.202;18.744;2022-08-01T07:41:11;97287.16;;;16.05;79.37
70589;BME280;58152;49.202;18.744;2022-08-01T07:43:36;97273.59;;;16.10;79.55
70589;BME280;58152;49.202;18.744;2022-08-01T07:46:03;97277.81;;;16.12;79.49
70589;BME280;58152;49.202;18.744;2022-08-01T07:48:28;97278.78;;;16.11;79.25
70589;BME280;58152;49.202;18.744;2022-08-01T07:50:54;97281.53;;;16.10;79.67
70589;BME280;58152;49.202;18.744;2022-08-01T07:53:20;97278.91;;;16.10;79.18
70589;BME280;58152;49.202;18.744;2022-08-01T08:06:15;97269.47;;;16.06;79.72
70589;BME280;58152;49.202;18.744;2022-08-01T08:12:38;97274.97;;;16.15;79.61
70589;BME280;58152;49.202;18.744;2022-08-01T08:15:03;97274.78;;;16.18;79.60
70589;BME280;58152;49.202;18.744;2022-08-01T08:17:31;97281.63;;;16.21;79.43
70589;BME280;58152;49.202;18.744;2022-08-01T08:19:57;97271.28;;;16.18;79.44
70589;BME280;58152;49.202;18.744;2022-08-01T08:22:22;97281.22;;;16.27;79.25
70589;BME280;58152;49.202;18.744;2022-08-01T08:24:48;97272.97;;;16.32;79.13
70589;BME280;58152;49.202;18.744;2022-08-01T08:27:13;97270.22;;;16.33;78.80
70589;BME280;58152;49.202;18.744;2022-08-01T08:29:39;97263.75;;;16.37;78.68
70589;BME280;58152;49.202;18.744;2022-08-01T08:32:05;97264.16;;;16.44;79.09
70589;BME280;58152;49.202;18.744;2022-08-01T08:34:37;97277.38;;;16.57;79.24
70589;BME280;58152;49.202;18.744;2022-08-01T08:41:00;97268.97;;;16.88;79.09
70589;BME280;58152;49.202;18.744;2022-08-01T08:43:44;97274.75;;;17.06;78.59
70589;BME280;58152;49.202;18.744;2022-08-01T08:57:10;97272.53;;;17.48;77.30
70589;BME280;58152;49.202;18.744;2022-08-01T09:00:16;97258.09;;;17.52;77.49
70589;BME280;58152;49.202;18.744;2022-08-01T09:06:43;97267.19;;;17.72;76.81
70589;BME280;58152;49.202;18.744;2022-08-01T09:09:28;97273.66;;;17.81;76.57
70589;BME280;58152;49.202;18.744;2022-08-01T09:15:44;97277.22;;;18.03;76.25
70589;BME280;58152;49.202;18.744;2022-08-01T09:18:37;97258.28;;;18.08;75.94
70589;BME280;58152;49.202;18.744;2022-08-01T09:26:45;97240.94;;;18.38;75.44
70589;BME280;58152;49.202;18.744;2022-08-01T09:29:34;97245.16;;;18.51;75.33
70589;BME280;58152;49.202;18.744;2022-08-01T12:48:52;97213.16;;;23.40;62.29
70589;BME280;58152;49.202;18.744;2022-08-01T13:33:22;97204.75;;;26.95;48.61
70589;BME280;58152;49.202;18.744;2022-08-01T13:57:10;97194.59;;;27.59;48.33
70589;BME280;58152;49.202;18.744;2022-08-01T14:37:09;97200.13;;;25.76;47.15
70589;BME280;58152;49.202;18.744;2022-08-01T14:43:07;97218.22;;;25.42;50.55
70589;BME280;58152;49.202;18.744;2022-08-01T15:26:11;97257.97;;;24.96;57.92
70589;BME280;58152;49.202;18.744;2022-08-01T16:04:43;97226.38;;;25.24;56.09
70589;BME280;58152;49.202;18.744;2022-08-01T16:07:10;97219.84;;;25.18;55.72
70589;BME280;58152;49.202;18.744;2022-08-01T17:19:37;97246.78;;;24.14;62.78
70589;BME280;58152;49.202;18.744;2022-08-01T18:04:06;97282.06;;;23.38;63.41
70589;BME280;58152;49.202;18.744;2022-08-01T18:07:01;97279.84;;;23.33;63.58
70589;BME280;58152;49.202;18.744;2022-08-01T18:10:10;97277.91;;;23.26;63.95
70589;BME280;58152;49.202;18.744;2022-08-01T18:13:12;97284.94;;;23.27;64.14
70589;BME280;58152;49.202;18.744;2022-08-01T18:19:09;97292.19;;;23.17;64.66
70589;BME280;58152;49.202;18.744;2022-08-01T18:28:37;97300.44;;;23.05;65.15
70589;BME280;58152;49.202;18.744;2022-08-01T18:31:08;97297.66;;;22.97;65.06
70589;BME280;58152;49.202;18.744;2022-08-01T18:34:04;97302.84;;;22.99;65.38
70589;BME280;58152;49.202;18.744;2022-08-01T18:37:04;97312.16;;;22.95;65.34
70589;BME280;58152;49.202;18.744;2022-08-01T18:40:02;97315.16;;;22.92;65.26
70589;BME280;58152;49.202;18.744;2022-08-01T18:42:42;97315.28;;;22.90;65.62
70589;BME280;58152;49.202;18.744;2022-08-01T18:45:13;97308.81;;;22.83;65.68
70589;BME280;58152;49.202;18.744;2022-08-01T18:47:39;97314.28;;;22.81;65.92
70589;BME280;58152;49.202;18.744;2022-08-01T18:50:40;97313.88;;;22.76;65.98
70589;BME280;58152;49.202;18.744;2022-08-01T18:53:18;97318.28;;;22.77;65.93
70589;BME280;58152;49.202;18.744;2022-08-01T19:02:36;97344.91;;;22.69;66.61
70589;BME280;58152;49.202;18.744;2022-08-01T19:05:08;97349.69;;;22.66;66.55
70589;BME280;58152;49.202;18.744;2022-08-01T19:44:33;97365.78;;;22.37;68.36
70589;BME280;58152;49.202;18.744;2022-08-01T19:54:40;97370.44;;;22.25;68.73
70589;BME280;58152;49.202;18.744;2022-08-01T19:57:06;97368.91;;;22.22;68.66
70589;BME280;58152;49.202;18.744;2022-08-01T20:10:32;97382.13;;;22.14;69.30
70589;BME280;58152;49.202;18.744;2022-08-01T20:20:33;97387.00;;;22.09;69.58
70589;BME280;58152;49.202;18.744;2022-08-01T20:26:54;97390.22;;;22.03;69.20
70589;BME280;58152;49.202;18.744;2022-08-01T20:29:27;97384.03;;;22.02;69.33
70589;BME280;58152;49.202;18.744;2022-08-01T20:39:22;97377.69;;;21.84;69.51
70589;BME280;58152;49.202;18.744;2022-08-01T20:53:23;97392.72;;;21.75;70.04
70589;BME280;58152;49.202;18.744;2022-08-01T20:56:38;97396.38;;;21.74;69.98
70589;BME280;58152;49.202;18.744;2022-08-01T21:39:35;97397.97;;;21.37;69.55
70589;BME280;58152;49.202;18.744;2022-08-01T21:45:50;97408.31;;;21.30;69.58
70589;BME280;58152;49.202;18.744;2022-08-01T21:48:16;97399.88;;;21.25;69.54
70589;BME280;58152;49.202;18.744;2022-08-01T21:50:54;97394.22;;;21.18;69.18
70589;BME280;58152;49.202;18.744;2022-08-01T22:14:18;97404.25;;;20.74;69.25
70589;BME280;58152;49.202;18.744;2022-08-01T22:17:08;97409.34;;;20.77;69.17
70589;BME280;58152;49.202;18.744;2022-08-01T22:19:44;97416.59;;;20.75;69.36
70589;BME280;58152;49.202;18.744;2022-08-01T22:26:04;97407.44;;;20.68;69.67
70589;BME280;58152;49.202;18.744;2022-08-01T22:29:30;97403.16;;;20.56;69.54
70589;BME280;58152;49.202;18.744;2022-08-01T22:36:12;97413.19;;;20.64;69.74
70589;BME280;58152;49.202;18.744;2022-08-01T22:39:08;97421.03;;;20.65;69.68
70589;BME280;58152;49.202;18.744;2022-08-01T22:42:07;97423.84;;;20.64;69.65
70589;BME280;58152;49.202;18.744;2022-08-01T22:53:52;97428.66;;;20.49;69.76
70589;BME280;58152;49.202;18.744;2022-08-01T22:57:19;97412.09;;;20.34;69.56
70589;BME280;58152;49.202;18.744;2022-08-01T23:00:34;97418.66;;;20.30;69.79
70589;BME280;58152;49.202;18.744;2022-08-01T23:03:26;97421.13;;;20.22;69.78
70589;BME280;58152;49.202;18.744;2022-08-01T23:06:33;97425.72;;;20.20;69.79
70589;BME280;58152;49.202;18.744;2022-08-01T23:09:09;97424.53;;;20.13;69.75
70589;BME280;58152;49.202;18.744;2022-08-01T23:15:08;97429.41;;;20.08;69.98
70589;BME280;58152;49.202;18.744;2022-08-01T23:18:05;97442.06;;;20.15;69.99
70589;BME280;58152;49.202;18.744;2022-08-01T23:20:49;97446.91;;;20.21;70.25
70589;BME280;58152;49.202;18.744;2022-08-01T23:23:46;97447.03;;;20.20;69.79
70589;BME280;58152;49.202;18.744;2022-08-01T23:26:18;97444.50;;;20.18;69.63
70589;BME280;58152;49.202;18.744;2022-08-01T23:28:46;97450.19;;;20.14;70.08
70589;BME280;58152;49.202;18.744;2022-08-01T23:31:21;97447.06;;;20.09;70.03
70589;BME280;58152;49.202;18.744;2022-08-01T23:34:25;97445.63;;;20.04;69.97
70589;BME280;58152;49.202;18.744;2022-08-01T23:40:16;97451.56;;;19.97;70.36
70589;BME280;58152;49.202;18.744;2022-08-01T23:45:51;97446.28;;;19.86;70.29
70589;BME280;58152;49.202;18.744;2022-08-01T23:48:19;97447.38;;;19.83;70.61
70589;BME280;58152;49.202;18.744;2022-08-01T23:50:53;97451.63;;;19.86;70.58
70589;BME280;58152;49.202;18.744;2022-08-01T23:53:28;97456.34;;;19.82;70.51
70589;BME280;58152;49.202;18.744;2022-08-01T23:56:02;97470.75;;;19.79;70.37
70589;BME280;58152;49.202;18.744;2022-08-01T23:58:57;97462.03;;;19.77;70.30
